EGCN/DSA METAR and TAF weather

Enter ICAO airport designator
Station Type Date Time Source
EGCN METAR 2019/08/24 09:50 UTC NOAA

EGCN 240950Z 17008KT CAVOK 23/15 Q1021


Station Type Date Time Source
EGCN Decoded METAR 2019/08/24 09:50 UTC NOAA

Station name not available
Aug 24, 2019 - 05:50 AM EDT / 2019.08.24 0950 UTC
Wind: from the S (170 degrees) at 9 MPH (8 KT):0
Visibility: greater than 7 mile(s):0
Temperature: 73 F (23 C)
Dew Point: 59 F (15 C)
Relative Humidity: 60%
Pressure (altimeter): 30.15 in. Hg (1021 hPa)
ob: EGCN 240950Z 17008KT CAVOK 23/15 Q1021
cycle: 10

Station Type Date Time Source
EGCN TAF 2019/08/24 06:00 UTC NOAA

TAF EGCN 240505Z 2406/2506 VRB03KT 9999 FEW045
BECMG 2406/2409 17010KT
BECMG 2418/2421 VRB03KT PROB40
TEMPO 2503/2506 7000

Example: see airport list